Time,TemperatureF,DewpointF,PressureIn,WindDirection,WindDirectionDegrees,WindSpeedMPH,WindSpeedGustMPH,Humidity,HourlyPrecipIn,Conditions,Clouds,dailyrainin,SoftwareType,DateUTC
2013-01-04 00:06:00,36.7,35.0,30.27,NE,50,0.0,0.0,93,0.00,,,0.00,weatherlink.com 1.10,2013-01-04 08:06:00,
2013-01-04 00:21:00,37.4,36.0,30.27,NE,50,0.0,0.0,93,0.00,,,0.00,weatherlink.com 1.10,2013-01-04 08:21:00,
2013-01-04 00:36:00,36.9,35.0,30.27,NE,50,0.0,0.0,92,0.00,,,0.00,weatherlink.com 1.10,2013-01-04 08:36:00,
2013-01-04 00:51:00,35.6,34.0,30.27,NE,50,0.0,0.0,92,0.00,,,0.00,weatherlink.com 1.10,2013-01-04 08:51:00,
2013-01-04 01:06:00,35.2,33.0,30.27,NE,49,0.0,0.0,93,0.00,,,0.00,weatherlink.com 1.10,2013-01-04 09:06:00,
2013-01-04 01:21:00,35.9,34.0,30.26,NE,53,0.0,0.0,94,0.00,,,0.00,weatherlink.com 1.10,2013-01-04 09:21:00,
2013-01-04 01:37:00,35.7,34.0,30.27,NE,53,0.0,0.0,93,0.00,,,0.00,weatherlink.com 1.10,2013-01-04 09:37:00,
2013-01-04 01:51:00,35.0,33.0,30.27,NE,56,0.0,0.0,93,0.00,,,0.00,weatherlink.com 1.10,2013-01-04 09:51:00,
2013-01-04 02:06:00,34.5,33.0,30.27,NE,46,0.0,0.0,93,0.00,,,0.00,weatherlink.com 1.10,2013-01-04 10:06:00,
2013-01-04 02:21:00,34.4,33.0,30.27,North,352,0.0,0.0,93,0.00,,,0.00,weatherlink.com 1.10,2013-01-04 10:21:00,
2013-01-04 02:36:00,34.5,33.0,30.27,ENE,74,0.0,0.0,94,0.00,,,0.00,weatherlink.com 1.10,2013-01-04 10:36:00,
2013-01-04 02:53:00,36.2,35.0,30.27,ENE,72,0.0,0.0,95,0.00,,,0.00,weatherlink.com 1.10,2013-01-04 10:53:00,
2013-01-04 03:06:00,36.6,35.0,30.27,ENE,72,0.0,0.0,93,0.00,,,0.00,weatherlink.com 1.10,2013-01-04 11:06:00,
2013-01-04 03:21:00,36.4,35.0,30.26,ENE,73,0.0,0.0,93,0.00,,,0.00,weatherlink.com 1.10,2013-01-04 11:21:00,
2013-01-04 03:37:00,34.8,33.0,30.26,WNW,293,0.0,0.0,92,0.00,,,0.00,weatherlink.com 1.10,2013-01-04 11:37:00,
2013-01-04 03:52:00,34.2,32.0,30.26,WNW,293,0.0,0.0,93,0.00,,,0.00,weatherlink.com 1.10,2013-01-04 11:52:00,
2013-01-04 04:07:00,34.1,33.0,30.25,WNW,293,0.0,0.0,94,0.00,,,0.00,weatherlink.com 1.10,2013-01-04 12:07:00,
2013-01-04 04:22:00,33.6,32.0,30.25,WNW,292,0.0,0.0,94,0.00,,,0.00,weatherlink.com 1.10,2013-01-04 12:22:00,
2013-01-04 04:37:00,33.1,32.0,30.26,WNW,293,0.0,0.0,94,0.00,,,0.00,weatherlink.com 1.10,2013-01-04 12:37:00,
2013-01-04 04:52:00,33.3,32.0,30.27,WNW,293,0.0,0.0,95,0.00,,,0.00,weatherlink.com 1.10,2013-01-04 12:52:00,
2013-01-04 05:07:00,34.3,33.0,30.26,SE,134,0.0,3.0,95,0.00,,,0.00,weatherlink.com 1.10,2013-01-04 13:07:00,
2013-01-04 05:22:00,34.0,33.0,30.26,SSE,157,0.0,0.0,95,0.00,,,0.00,weatherlink.com 1.10,2013-01-04 13:22:00,
2013-01-04 05:37:00,33.5,32.0,30.27,SSW,200,0.0,0.0,95,0.00,,,0.00,weatherlink.com 1.10,2013-01-04 13:37:00,
2013-01-04 05:52:00,33.6,32.0,30.27,SE,146,0.0,0.0,95,0.00,,,0.00,weatherlink.com 1.10,2013-01-04 13:52:00,
2013-01-04 06:07:00,33.2,32.0,30.27,SE,145,0.0,0.0,95,0.00,,,0.00,weatherlink.com 1.10,2013-01-04 14:07:00,
2013-01-04 06:22:00,32.9,32.0,30.26,SE,145,0.0,0.0,95,0.00,,,0.00,weatherlink.com 1.10,2013-01-04 14:22:00,
2013-01-04 06:37:00,32.7,32.0,30.25,East,79,0.0,2.0,95,0.00,,,0.00,weatherlink.com 1.10,2013-01-04 14:37:00,
2013-01-04 06:52:00,32.4,31.0,30.25,SE,143,0.0,0.0,95,0.00,,,0.00,weatherlink.com 1.10,2013-01-04 14:52:00,
2013-01-04 07:07:00,32.5,32.0,30.26,SE,141,0.0,0.0,96,0.00,,,0.00,weatherlink.com 1.10,2013-01-04 15:07:00,
2013-01-04 07:22:00,33.2,32.0,30.27,ESE,110,0.0,0.0,96,0.00,,,0.00,weatherlink.com 1.10,2013-01-04 15:22:00,
2013-01-04 07:37:00,32.7,32.0,30.28,ESE,110,0.0,0.0,96,0.00,,,0.00,weatherlink.com 1.10,2013-01-04 15:37:00,
2013-01-04 07:52:00,32.8,32.0,30.28,ENE,61,0.0,0.0,96,0.00,,,0.00,weatherlink.com 1.10,2013-01-04 15:52:00,
2013-01-04 08:07:00,33.6,33.0,30.27,NE,46,0.0,0.0,96,0.00,,,0.00,weatherlink.com 1.10,2013-01-04 16:07:00,
2013-01-04 08:22:00,34.7,34.0,30.28,NE,46,0.0,0.0,96,0.00,,,0.00,weatherlink.com 1.10,2013-01-04 16:22:00,
2013-01-04 08:37:00,36.3,35.0,30.29,SW,224,0.0,0.0,96,0.00,,,0.00,weatherlink.com 1.10,2013-01-04 16:37:00,
2013-01-04 08:52:00,38.3,37.0,30.29,South,177,0.0,0.0,96,0.00,,,0.00,weatherlink.com 1.10,2013-01-04 16:52:00,
2013-01-04 09:07:00,38.7,37.0,30.29,ENE,70,0.0,0.0,93,0.00,,,0.00,weatherlink.com 1.10,2013-01-04 17:07:00,
2013-01-04 09:22:00,39.9,38.0,30.29,ENE,74,0.0,0.0,92,0.00,,,0.00,weatherlink.com 1.10,2013-01-04 17:22:00,
2013-01-04 09:37:00,42.1,39.0,30.29,WNW,285,0.0,0.0,90,0.00,,,0.00,weatherlink.com 1.10,2013-01-04 17:37:00,
2013-01-04 09:52:00,43.3,39.0,30.30,West,277,0.0,0.0,86,0.00,,,0.00,weatherlink.com 1.10,2013-01-04 17:52:00,
2013-01-04 10:07:00,45.6,40.0,30.30,SSW,208,0.0,0.0,81,0.00,,,0.00,weatherlink.com 1.10,2013-01-04 18:07:00,
2013-01-04 10:22:00,46.7,41.0,30.30,SW,225,0.0,0.0,79,0.00,,,0.00,weatherlink.com 1.10,2013-01-04 18:22:00,
2013-01-04 10:38:00,48.1,41.0,30.30,WNW,284,1.0,1.0,76,0.00,,,0.00,weatherlink.com 1.10,2013-01-04 18:38:00,
2013-01-04 10:53:00,48.8,41.0,30.29,SSW,195,0.0,0.0,74,0.00,,,0.00,weatherlink.com 1.10,2013-01-04 18:53:00,
2013-01-04 11:08:00,50.0,41.0,30.28,NNW,340,0.0,1.0,70,0.00,,,0.00,weatherlink.com 1.10,2013-01-04 19:08:00,
2013-01-04 11:23:00,50.5,40.0,30.27,WSW,248,1.0,2.0,68,0.00,,,0.00,weatherlink.com 1.10,2013-01-04 19:23:00,
2013-01-04 11:38:00,50.9,40.0,30.26,WNW,301,0.0,2.0,67,0.00,,,0.00,weatherlink.com 1.10,2013-01-04 19:38:00,
2013-01-04 11:53:00,51.3,40.0,30.25,SE,133,0.0,2.0,65,0.00,,,0.00,weatherlink.com 1.10,2013-01-04 19:53:00,
2013-01-04 12:08:00,52.0,39.0,30.24,NW,321,0.0,2.0,62,0.00,,,0.00,weatherlink.com 1.10,2013-01-04 20:08:00,
2013-01-04 12:23:00,53.2,40.0,30.23,West,276,0.0,2.0,62,0.00,,,0.00,weatherlink.com 1.10,2013-01-04 20:23:00,
2013-01-04 12:38:00,54.4,41.0,30.22,West,277,1.0,3.0,61,0.00,,,0.00,weatherlink.com 1.10,2013-01-04 20:38:00,
2013-01-04 12:53:00,54.6,41.0,30.22,SW,218,0.0,4.0,60,0.00,,,0.00,weatherlink.com 1.10,2013-01-04 20:53:00,
2013-01-04 13:08:00,55.4,42.0,30.21,SW,218,0.0,6.0,61,0.00,,,0.00,weatherlink.com 1.10,2013-01-04 21:08:00,
2013-01-04 13:23:00,55.3,42.0,30.21,South,174,1.0,5.0,62,0.00,,,0.00,weatherlink.com 1.10,2013-01-04 21:23:00,
2013-01-04 13:38:00,55.6,42.0,30.20,SSW,211,1.0,5.0,61,0.00,,,0.00,weatherlink.com 1.10,2013-01-04 21:38:00,
2013-01-04 13:53:00,56.4,42.0,30.19,SW,236,4.0,7.0,60,0.00,,,0.00,weatherlink.com 1.10,2013-01-04 21:53:00,
2013-01-04 14:08:00,57.2,43.0,30.19,SSW,202,2.0,4.0,60,0.00,,,0.00,weatherlink.com 1.10,2013-01-04 22:08:00,
2013-01-04 14:23:00,57.3,43.0,30.19,SW,221,2.0,6.0,59,0.00,,,0.00,weatherlink.com 1.10,2013-01-04 22:23:00,
2013-01-04 14:38:00,57.2,42.0,30.18,SW,217,2.0,7.0,58,0.00,,,0.00,weatherlink.com 1.10,2013-01-04 22:38:00,
2013-01-04 14:53:00,57.4,43.0,30.18,WSW,258,4.0,7.0,59,0.00,,,0.00,weatherlink.com 1.10,2013-01-04 22:53:00,
2013-01-04 15:08:00,57.6,44.0,30.18,SSE,148,2.0,7.0,60,0.00,,,0.00,weatherlink.com 1.10,2013-01-04 23:08:00,
2013-01-04 15:23:00,57.0,43.0,30.18,SSE,150,2.0,7.0,61,0.00,,,0.00,weatherlink.com 1.10,2013-01-04 23:23:00,
2013-01-04 15:38:00,57.3,43.0,30.18,SW,231,1.0,7.0,60,0.00,,,0.00,weatherlink.com 1.10,2013-01-04 23:38:00,
2013-01-04 15:53:00,57.2,43.0,30.18,SSW,201,3.0,8.0,59,0.00,,,0.00,weatherlink.com 1.10,2013-01-04 23:53:00,
2013-01-04 16:08:00,57.5,43.0,30.18,SW,221,2.0,5.0,59,0.00,,,0.00,weatherlink.com 1.10,2013-01-05 00:08:00,
2013-01-04 16:23:00,56.8,43.0,30.18,SSW,209,1.0,6.0,60,0.00,,,0.00,weatherlink.com 1.10,2013-01-05 00:23:00,
2013-01-04 16:38:00,55.3,42.0,30.18,South,176,1.0,5.0,62,0.00,,,0.00,weatherlink.com 1.10,2013-01-05 00:38:00,
2013-01-04 16:53:00,54.5,42.0,30.18,ESE,114,0.0,0.0,63,0.00,,,0.00,weatherlink.com 1.10,2013-01-05 00:53:00,
2013-01-04 17:08:00,52.5,42.0,30.18,SW,229,0.0,0.0,67,0.00,,,0.00,weatherlink.com 1.10,2013-01-05 01:08:00,
2013-01-04 17:23:00,50.5,41.0,30.18,South,191,0.0,0.0,71,0.00,,,0.00,weatherlink.com 1.10,2013-01-05 01:23:00,
2013-01-04 17:38:00,49.0,41.0,30.19,ESE,120,0.0,0.0,75,0.00,,,0.00,weatherlink.com 1.10,2013-01-05 01:38:00,
2013-01-04 17:53:00,48.0,41.0,30.20,SE,127,0.0,0.0,77,0.00,,,0.00,weatherlink.com 1.10,2013-01-05 01:53:00,
2013-01-04 18:08:00,46.5,40.0,30.20,SE,141,0.0,0.0,79,0.00,,,0.00,weatherlink.com 1.10,2013-01-05 02:08:00,
2013-01-04 18:23:00,45.3,40.0,30.20,SE,141,0.0,0.0,82,0.00,,,0.00,weatherlink.com 1.10,2013-01-05 02:23:00,
2013-01-04 18:38:00,45.0,40.0,30.20,SE,141,0.0,0.0,83,0.00,,,0.00,weatherlink.com 1.10,2013-01-05 02:38:00,
2013-01-04 19:08:00,43.7,40.0,30.20,SE,143,0.0,0.0,85,0.00,,,0.00,weatherlink.com 1.10,2013-01-05 03:08:00,
2013-01-04 19:23:00,43.6,39.0,30.20,SE,134,0.0,0.0,85,0.00,,,0.00,weatherlink.com 1.10,2013-01-05 03:23:00,
2013-01-04 19:38:00,43.3,39.0,30.20,SE,134,0.0,0.0,86,0.00,,,0.00,weatherlink.com 1.10,2013-01-05 03:38:00,
2013-01-04 19:53:00,42.9,39.0,30.20,ESE,116,0.0,0.0,85,0.00,,,0.00,weatherlink.com 1.10,2013-01-05 03:53:00,
2013-01-04 20:08:00,41.5,38.0,30.21,ESE,115,0.0,0.0,87,0.00,,,0.00,weatherlink.com 1.10,2013-01-05 04:08:00,
2013-01-04 20:24:00,41.2,38.0,30.21,SE,143,0.0,0.0,89,0.00,,,0.00,weatherlink.com 1.10,2013-01-05 04:24:00,
2013-01-04 20:39:00,41.1,38.0,30.21,NNE,15,0.0,0.0,89,0.00,,,0.00,weatherlink.com 1.10,2013-01-05 04:39:00,
2013-01-04 21:09:00,40.3,37.0,30.22,NE,47,0.0,0.0,89,0.00,,,0.00,weatherlink.com 1.10,2013-01-05 05:09:00,
2013-01-04 21:24:00,40.4,38.0,30.22,NE,47,0.0,0.0,89,0.00,,,0.00,weatherlink.com 1.10,2013-01-05 05:24:00,
2013-01-04 21:39:00,40.1,38.0,30.22,NE,45,1.0,3.0,90,0.00,,,0.00,weatherlink.com 1.10,2013-01-05 05:39:00,
2013-01-04 21:54:00,39.9,37.0,30.22,NE,45,0.0,0.0,90,0.00,,,0.00,weatherlink.com 1.10,2013-01-05 05:54:00,
2013-01-04 22:09:00,39.5,37.0,30.22,NE,46,0.0,0.0,90,0.00,,,0.00,weatherlink.com 1.10,2013-01-05 06:09:00,
2013-01-04 22:24:00,38.2,36.0,30.23,NE,46,0.0,0.0,90,0.00,,,0.00,weatherlink.com 1.10,2013-01-05 06:24:00,
2013-01-04 22:39:00,37.9,36.0,30.23,ENE,69,0.0,0.0,92,0.00,,,0.00,weatherlink.com 1.10,2013-01-05 06:39:00,
2013-01-04 22:54:00,38.3,36.0,30.23,SE,124,0.0,0.0,92,0.00,,,0.00,weatherlink.com 1.10,2013-01-05 06:54:00,
2013-01-04 23:09:00,38.3,36.0,30.23,NE,40,0.0,0.0,91,0.00,,,0.00,weatherlink.com 1.10,2013-01-05 07:09:00,
2013-01-04 23:24:00,37.8,36.0,30.23,NE,40,0.0,0.0,91,0.00,,,0.00,weatherlink.com 1.10,2013-01-05 07:24:00,
2013-01-04 23:39:00,37.8,36.0,30.23,NE,40,0.0,0.0,92,0.00,,,0.00,weatherlink.com 1.10,2013-01-05 07:39:00,
2013-01-04 23:54:00,37.8,36.0,30.22,NE,40,0.0,0.0,92,0.00,,,0.00,weatherlink.com 1.10,2013-01-05 07:54:00,